sensor_id;sensor_type;location;lat;lon;timestamp;temperature;humidity
67799;SHT30;54596;43.216;27.904;2023-04-01T00:01:41;8.26;90.39
67799;SHT30;54596;43.216;27.904;2023-04-01T00:04:07;8.26;90.32
67799;SHT30;54596;43.216;27.904;2023-04-01T00:06:32;8.24;90.48
67799;SHT30;54596;43.216;27.904;2023-04-01T00:08:59;8.19;90.58
67799;SHT30;54596;43.216;27.904;2023-04-01T00:11:25;8.19;90.65
67799;SHT30;54596;43.216;27.904;2023-04-01T00:13:52;8.19;90.55
67799;SHT30;54596;43.216;27.904;2023-04-01T00:16:18;8.23;90.41
67799;SHT30;54596;43.216;27.904;2023-04-01T00:18:43;8.20;90.41
67799;SHT30;54596;43.216;27.904;2023-04-01T00:21:09;8.17;90.52
67799;SHT30;54596;43.216;27.904;2023-04-01T00:23:35;8.20;90.55
67799;SHT30;54596;43.216;27.904;2023-04-01T00:26:03;8.16;90.59
67799;SHT30;54596;43.216;27.904;2023-04-01T00:28:29;8.14;90.49
67799;SHT30;54596;43.216;27.904;2023-04-01T00:30:55;8.09;90.75
67799;SHT30;54596;43.216;27.904;2023-04-01T00:33:21;8.00;90.99
67799;SHT30;54596;43.216;27.904;2023-04-01T00:35:47;8.04;90.99
67799;SHT30;54596;43.216;27.904;2023-04-01T00:38:14;8.04;91.02
67799;SHT30;54596;43.216;27.904;2023-04-01T00:40:44;8.06;91.04
67799;SHT30;54596;43.216;27.904;2023-04-01T00:43:18;8.02;91.10
67799;SHT30;54596;43.216;27.904;2023-04-01T00:45:46;8.03;91.10
67799;SHT30;54596;43.216;27.904;2023-04-01T00:48:15;8.02;91.07
67799;SHT30;54596;43.216;27.904;2023-04-01T00:50:48;8.00;91.10
67799;SHT30;54596;43.216;27.904;2023-04-01T00:53:14;8.04;90.95
67799;SHT30;54596;43.216;27.904;2023-04-01T00:55:46;8.00;91.12
67799;SHT30;54596;43.216;27.904;2023-04-01T00:58:15;7.99;91.21
67799;SHT30;54596;43.216;27.904;2023-04-01T01:00:42;7.99;91.13
67799;SHT30;54596;43.216;27.904;2023-04-01T01:03:08;7.97;91.14
67799;SHT30;54596;43.216;27.904;2023-04-01T01:08:21;7.99;91.01
67799;SHT30;54596;43.216;27.904;2023-04-01T01:10:52;7.93;91.09
67799;SHT30;54596;43.216;27.904;2023-04-01T01:15:58;7.82;91.91
67799;SHT30;54596;43.216;27.904;2023-04-01T01:21:42;7.78;91.65
67799;SHT30;54596;43.216;27.904;2023-04-01T01:27:18;7.81;91.45
67799;SHT30;54596;43.216;27.904;2023-04-01T01:29:57;7.81;91.44
67799;SHT30;54596;43.216;27.904;2023-04-01T01:32:49;7.81;91.34
67799;SHT30;54596;43.216;27.904;2023-04-01T01:35:27;7.79;91.61
67799;SHT30;54596;43.216;27.904;2023-04-01T01:38:17;7.75;91.70
67799;SHT30;54596;43.216;27.904;2023-04-01T01:40:46;7.75;91.73
67799;SHT30;54596;43.216;27.904;2023-04-01T01:43:15;7.79;91.73
67799;SHT30;54596;43.216;27.904;2023-04-01T01:45:47;7.76;91.78
67799;SHT30;54596;43.216;27.904;2023-04-01T01:48:15;7.75;91.71
67799;SHT30;54596;43.216;27.904;2023-04-01T01:50:45;7.75;91.70
67799;SHT30;54596;43.216;27.904;2023-04-01T01:53:13;7.79;91.71
67799;SHT30;54596;43.216;27.904;2023-04-01T01:55:44;7.78;91.68
67799;SHT30;54596;43.216;27.904;2023-04-01T01:58:20;7.74;91.62
67799;SHT30;54596;43.216;27.904;2023-04-01T02:00:51;7.72;91.50
67799;SHT30;54596;43.216;27.904;2023-04-01T02:03:19;7.76;91.39
67799;SHT30;54596;43.216;27.904;2023-04-01T02:05:47;7.78;91.32
67799;SHT30;54596;43.216;27.904;2023-04-01T02:08:20;7.74;91.34
67799;SHT30;54596;43.216;27.904;2023-04-01T02:10:56;7.76;91.21
67799;SHT30;54596;43.216;27.904;2023-04-01T02:13:29;7.76;91.06
67799;SHT30;54596;43.216;27.904;2023-04-01T02:16:00;7.74;91.15
67799;SHT30;54596;43.216;27.904;2023-04-01T02:18:28;7.71;91.07
67799;SHT30;54596;43.216;27.904;2023-04-01T02:20:57;7.71;91.08
67799;SHT30;54596;43.216;27.904;2023-04-01T02:23:25;7.69;91.11
67799;SHT30;54596;43.216;27.904;2023-04-01T02:25:53;7.68;91.36
67799;SHT30;54596;43.216;27.904;2023-04-01T02:28:20;7.68;91.26
67799;SHT30;54596;43.216;27.904;2023-04-01T02:30:47;7.66;91.23
67799;SHT30;54596;43.216;27.904;2023-04-01T02:33:13;7.68;91.18
67799;SHT30;54596;43.216;27.904;2023-04-01T02:35:40;7.71;91.14
67799;SHT30;54596;43.216;27.904;2023-04-01T02:38:07;7.66;91.25
67799;SHT30;54596;43.216;27.904;2023-04-01T02:40:47;7.68;91.18
67799;SHT30;54596;43.216;27.904;2023-04-01T02:43:14;7.68;91.23
67799;SHT30;54596;43.216;27.904;2023-04-01T02:45:39;7.69;91.12
67799;SHT30;54596;43.216;27.904;2023-04-01T02:48:05;7.69;91.11
67799;SHT30;54596;43.216;27.904;2023-04-01T02:50:34;7.69;91.06
67799;SHT30;54596;43.216;27.904;2023-04-01T02:53:00;7.71;91.05
67799;SHT30;54596;43.216;27.904;2023-04-01T02:55:29;7.71;91.06
67799;SHT30;54596;43.216;27.904;2023-04-01T02:57:56;7.69;91.07
67799;SHT30;54596;43.216;27.904;2023-04-01T03:00:21;7.69;91.05
67799;SHT30;54596;43.216;27.904;2023-04-01T03:02:47;7.71;91.01
67799;SHT30;54596;43.216;27.904;2023-04-01T03:05:12;7.75;90.98
67799;SHT30;54596;43.216;27.904;2023-04-01T03:07:38;7.74;91.10
67799;SHT30;54596;43.216;27.904;2023-04-01T03:10:05;7.81;91.07
67799;SHT30;54596;43.216;27.904;2023-04-01T03:12:31;7.82;91.02
67799;SHT30;54596;43.216;27.904;2023-04-01T03:14:56;7.83;91.07
67799;SHT30;54596;43.216;27.904;2023-04-01T03:17:22;7.87;91.08
67799;SHT30;54596;43.216;27.904;2023-04-01T03:19:47;7.92;90.97
67799;SHT30;54596;43.216;27.904;2023-04-01T03:22:14;7.97;90.91
67799;SHT30;54596;43.216;27.904;2023-04-01T03:24:41;7.96;90.93
67799;SHT30;54596;43.216;27.904;2023-04-01T03:27:06;7.99;90.85
67799;SHT30;54596;43.216;27.904;2023-04-01T03:29:32;8.00;90.70
67799;SHT30;54596;43.216;27.904;2023-04-01T03:31:57;7.96;90.69
67799;SHT30;54596;43.216;27.904;2023-04-01T03:34:24;7.94;90.75
67799;SHT30;54596;43.216;27.904;2023-04-01T03:36:50;7.93;90.76
67799;SHT30;54596;43.216;27.904;2023-04-01T03:39:17;7.89;90.89
67799;SHT30;54596;43.216;27.904;2023-04-01T03:41:45;7.87;90.85
67799;SHT30;54596;43.216;27.904;2023-04-01T03:44:11;7.89;90.97
67799;SHT30;54596;43.216;27.904;2023-04-01T03:46:36;7.86;91.05
67799;SHT30;54596;43.216;27.904;2023-04-01T03:49:02;7.85;91.16
67799;SHT30;54596;43.216;27.904;2023-04-01T03:51:29;7.86;91.10
67799;SHT30;54596;43.216;27.904;2023-04-01T03:53:55;7.85;91.11
67799;SHT30;54596;43.216;27.904;2023-04-01T03:56:22;7.89;91.00
67799;SHT30;54596;43.216;27.904;2023-04-01T03:58:49;7.90;90.96
67799;SHT30;54596;43.216;27.904;2023-04-01T04:01:17;7.94;90.99
67799;SHT30;54596;43.216;27.904;2023-04-01T04:03:44;7.93;90.99
67799;SHT30;54596;43.216;27.904;2023-04-01T04:06:13;7.96;90.93
67799;SHT30;54596;43.216;27.904;2023-04-01T04:08:39;7.97;90.93
67799;SHT30;54596;43.216;27.904;2023-04-01T04:11:04;8.02;90.92
67799;SHT30;54596;43.216;27.904;2023-04-01T04:13:30;8.07;91.04
67799;SHT30;54596;43.216;27.904;2023-04-01T04:15:55;8.14;91.45
67799;SHT30;54596;43.216;27.904;2023-04-01T04:18:21;8.21;91.31
67799;SHT30;54596;43.216;27.904;2023-04-01T04:20:48;8.28;91.29
67799;SHT30;54596;43.216;27.904;2023-04-01T04:23:16;8.33;90.83
67799;SHT30;54596;43.216;27.904;2023-04-01T04:25:56;8.45;90.79
67799;SHT30;54596;43.216;27.904;2023-04-01T04:28:24;8.55;90.76
67799;SHT30;54596;43.216;27.904;2023-04-01T04:30:51;8.59;90.46
67799;SHT30;54596;43.216;27.904;2023-04-01T04:33:16;8.68;90.07
67799;SHT30;54596;43.216;27.904;2023-04-01T04:35:42;8.73;89.98
67799;SHT30;54596;43.216;27.904;2023-04-01T04:38:07;8.86;89.97
67799;SHT30;54596;43.216;27.904;2023-04-01T04:40:33;8.94;89.66
67799;SHT30;54596;43.216;27.904;2023-04-01T04:42:58;9.04;89.40
67799;SHT30;54596;43.216;27.904;2023-04-01T04:45:24;9.11;89.31
67799;SHT30;54596;43.216;27.904;2023-04-01T04:47:49;9.17;89.14
67799;SHT30;54596;43.216;27.904;2023-04-01T04:50:15;9.31;88.96
67799;SHT30;54596;43.216;27.904;2023-04-01T04:52:43;9.44;88.88
67799;SHT30;54596;43.216;27.904;2023-04-01T04:55:11;9.53;88.66
67799;SHT30;54596;43.216;27.904;2023-04-01T04:57:36;9.66;88.58
67799;SHT30;54596;43.216;27.904;2023-04-01T05:00:02;9.76;88.46
67799;SHT30;54596;43.216;27.904;2023-04-01T05:02:28;9.83;88.31
67799;SHT30;54596;43.216;27.904;2023-04-01T05:04:54;9.90;88.23
67799;SHT30;54596;43.216;27.904;2023-04-01T05:07:19;9.97;88.16
67799;SHT30;54596;43.216;27.904;2023-04-01T05:09:45;10.07;87.93
67799;SHT30;54596;43.216;27.904;2023-04-01T05:12:12;10.11;87.85
67799;SHT30;54596;43.216;27.904;2023-04-01T05:14:38;10.24;87.34
67799;SHT30;54596;43.216;27.904;2023-04-01T05:17:07;10.37;86.82
67799;SHT30;54596;43.216;27.904;2023-04-01T05:19:33;10.46;86.03
67799;SHT30;54596;43.216;27.904;2023-04-01T05:21:59;10.55;86.15
67799;SHT30;54596;43.216;27.904;2023-04-01T05:24:24;10.65;86.44
67799;SHT30;54596;43.216;27.904;2023-04-01T05:26:49;10.75;85.45
67799;SHT30;54596;43.216;27.904;2023-04-01T05:29:15;10.86;84.83
67799;SHT30;54596;43.216;27.904;2023-04-01T05:31:40;11.01;84.54
67799;SHT30;54596;43.216;27.904;2023-04-01T05:34:06;11.12;84.21
67799;SHT30;54596;43.216;27.904;2023-04-01T05:36:31;11.24;84.15
67799;SHT30;54596;43.216;27.904;2023-04-01T05:38:57;11.38;84.68
67799;SHT30;54596;43.216;27.904;2023-04-01T05:41:22;11.46;83.60
67799;SHT30;54596;43.216;27.904;2023-04-01T05:43:48;11.59;83.53
67799;SHT30;54596;43.216;27.904;2023-04-01T05:46:13;11.76;83.54
67799;SHT30;54596;43.216;27.904;2023-04-01T05:48:39;11.91;83.62
67799;SHT30;54596;43.216;27.904;2023-04-01T05:51:04;12.13;82.78
67799;SHT30;54596;43.216;27.904;2023-04-01T05:53:31;12.50;82.06
67799;SHT30;54596;43.216;27.904;2023-04-01T05:55:56;12.97;79.83
67799;SHT30;54596;43.216;27.904;2023-04-01T05:58:22;13.42;77.81
67799;SHT30;54596;43.216;27.904;2023-04-01T06:00:47;14.05;76.94
67799;SHT30;54596;43.216;27.904;2023-04-01T06:03:14;14.73;74.08
67799;SHT30;54596;43.216;27.904;2023-04-01T06:05:42;15.18;71.62
67799;SHT30;54596;43.216;27.904;2023-04-01T06:08:15;15.28;72.28
67799;SHT30;54596;43.216;27.904;2023-04-01T06:19:03;15.44;70.80
67799;SHT30;54596;43.216;27.904;2023-04-01T06:34:34;14.63;72.67
67799;SHT30;54596;43.216;27.904;2023-04-01T06:45:32;14.32;74.08
67799;SHT30;54596;43.216;27.904;2023-04-01T06:54:16;14.08;74.50
67799;SHT30;54596;43.216;27.904;2023-04-01T06:56:45;14.04;74.17
67799;SHT30;54596;43.216;27.904;2023-04-01T07:04:41;14.21;73.44
67799;SHT30;54596;43.216;27.904;2023-04-01T07:09:48;14.29;74.32
67799;SHT30;54596;43.216;27.904;2023-04-01T07:12:21;14.50;73.66
67799;SHT30;54596;43.216;27.904;2023-04-01T07:14:49;14.74;73.54
67799;SHT30;54596;43.216;27.904;2023-04-01T07:17:19;14.85;72.89
67799;SHT30;54596;43.216;27.904;2023-04-01T07:20:05;14.88;73.00
67799;SHT30;54596;43.216;27.904;2023-04-01T07:22:43;14.95;73.29
67799;SHT30;54596;43.216;27.904;2023-04-01T07:25:18;14.83;73.57
67799;SHT30;54596;43.216;27.904;2023-04-01T07:27:46;14.80;73.81
67799;SHT30;54596;43.216;27.904;2023-04-01T07:30:21;14.67;73.86
67799;SHT30;54596;43.216;27.904;2023-04-01T07:33:03;14.42;74.55
67799;SHT30;54596;43.216;27.904;2023-04-01T07:38:19;14.42;74.85
67799;SHT30;54596;43.216;27.904;2023-04-01T07:41:15;14.47;74.86
67799;SHT30;54596;43.216;27.904;2023-04-01T07:44:02;14.46;74.72
67799;SHT30;54596;43.216;27.904;2023-04-01T07:49:15;14.33;75.12
67799;SHT30;54596;43.216;27.904;2023-04-01T07:52:24;14.36;75.05
67799;SHT30;54596;43.216;27.904;2023-04-01T07:54:49;14.42;75.45
67799;SHT30;54596;43.216;27.904;2023-04-01T07:57:47;14.47;74.78
67799;SHT30;54596;43.216;27.904;2023-04-01T08:00:24;14.47;74.56
67799;SHT30;54596;43.216;27.904;2023-04-01T08:05:49;14.80;74.64
67799;SHT30;54596;43.216;27.904;2023-04-01T08:10:52;15.53;72.63
67799;SHT30;54596;43.216;27.904;2023-04-01T08:13:35;15.90;71.68
67799;SHT30;54596;43.216;27.904;2023-04-01T08:16:23;15.95;71.34
67799;SHT30;54596;43.216;27.904;2023-04-01T08:21:45;15.78;71.64
67799;SHT30;54596;43.216;27.904;2023-04-01T08:24:44;15.67;71.74
67799;SHT30;54596;43.216;27.904;2023-04-01T08:29:57;15.80;72.08
67799;SHT30;54596;43.216;27.904;2023-04-01T08:32:34;15.87;71.85
67799;SHT30;54596;43.216;27.904;2023-04-01T08:35:21;15.73;72.40
67799;SHT30;54596;43.216;27.904;2023-04-01T08:37:48;15.68;72.53
67799;SHT30;54596;43.216;27.904;2023-04-01T08:42:50;15.57;72.73
67799;SHT30;54596;43.216;27.904;2023-04-01T08:48:29;16.04;72.03
67799;SHT30;54596;43.216;27.904;2023-04-01T09:08:12;16.80;70.61
67799;SHT30;54596;43.216;27.904;2023-04-01T09:10:59;16.74;70.34
67799;SHT30;54596;43.216;27.904;2023-04-01T09:21:29;16.61;71.40
67799;SHT30;54596;43.216;27.904;2023-04-01T09:24:14;16.55;71.00
67799;SHT30;54596;43.216;27.904;2023-04-01T09:27:03;16.56;70.99
67799;SHT30;54596;43.216;27.904;2023-04-01T09:32:22;16.77;70.72
67799;SHT30;54596;43.216;27.904;2023-04-01T09:34:52;16.96;70.52
67799;SHT30;54596;43.216;27.904;2023-04-01T09:37:34;17.05;71.18
67799;SHT30;54596;43.216;27.904;2023-04-01T09:40:17;17.08;70.12
67799;SHT30;54596;43.216;27.904;2023-04-01T09:53:17;17.08;71.01
67799;SHT30;54596;43.216;27.904;2023-04-01T10:01:42;16.94;71.53
67799;SHT30;54596;43.216;27.904;2023-04-01T10:12:59;16.56;72.72
67799;SHT30;54596;43.216;27.904;2023-04-01T10:15:49;16.36;73.34
67799;SHT30;54596;43.216;27.904;2023-04-01T10:24:30;16.01;74.65
67799;SHT30;54596;43.216;27.904;2023-04-01T10:27:07;15.97;74.78
67799;SHT30;54596;43.216;27.904;2023-04-01T10:44:18;16.46;73.90
67799;SHT30;54596;43.216;27.904;2023-04-01T10:47:01;16.46;73.87
67799;SHT30;54596;43.216;27.904;2023-04-01T10:58:16;16.68;73.66
67799;SHT30;54596;43.216;27.904;2023-04-01T11:12:52;16.15;75.03
67799;SHT30;54596;43.216;27.904;2023-04-01T11:26:09;16.12;75.19
67799;SHT30;54596;43.216;27.904;2023-04-01T11:31:24;16.00;75.09
67799;SHT30;54596;43.216;27.904;2023-04-01T11:39:37;16.09;75.13
67799;SHT30;54596;43.216;27.904;2023-04-01T11:48:08;16.32;75.00
67799;SHT30;54596;43.216;27.904;2023-04-01T12:02:20;16.64;74.18
67799;SHT30;54596;43.216;27.904;2023-04-01T12:04:58;16.70;73.91
67799;SHT30;54596;43.216;27.904;2023-04-01T12:13:14;16.96;72.92
67799;SHT30;54596;43.216;27.904;2023-04-01T12:18:24;17.11;72.72
67799;SHT30;54596;43.216;27.904;2023-04-01T12:29:49;17.19;72.60
67799;SHT30;54596;43.216;27.904;2023-04-01T12:32:45;17.14;72.89
67799;SHT30;54596;43.216;27.904;2023-04-01T12:39:06;16.99;73.59
67799;SHT30;54596;43.216;27.904;2023-04-01T12:41:42;16.95;73.86
67799;SHT30;54596;43.216;27.904;2023-04-01T12:44:23;16.87;74.04
67799;SHT30;54596;43.216;27.904;2023-04-01T12:50:02;16.67;74.62
67799;SHT30;54596;43.216;27.904;2023-04-01T12:52:55;16.43;75.01
67799;SHT30;54596;43.216;27.904;2023-04-01T12:58:49;16.15;76.02
67799;SHT30;54596;43.216;27.904;2023-04-01T13:01:29;16.01;76.37
67799;SHT30;54596;43.216;27.904;2023-04-01T13:17:52;15.95;76.91
67799;SHT30;54596;43.216;27.904;2023-04-01T13:25:52;15.93;76.87
67799;SHT30;54596;43.216;27.904;2023-04-01T13:28:23;15.97;76.76
67799;SHT30;54596;43.216;27.904;2023-04-01T13:42:24;15.87;77.06
67799;SHT30;54596;43.216;27.904;2023-04-01T13:45:01;15.88;77.04
67799;SHT30;54596;43.216;27.904;2023-04-01T14:01:50;16.21;75.80
67799;SHT30;54596;43.216;27.904;2023-04-01T14:07:04;15.91;76.06
67799;SHT30;54596;43.216;27.904;2023-04-01T14:12:31;15.54;77.02
67799;SHT30;54596;43.216;27.904;2023-04-01T14:20:36;15.33;77.77
67799;SHT30;54596;43.216;27.904;2023-04-01T14:23:41;15.16;78.24
67799;SHT30;54596;43.216;27.904;2023-04-01T14:29:23;15.14;78.48
67799;SHT30;54596;43.216;27.904;2023-04-01T14:32:06;15.28;77.89
67799;SHT30;54596;43.216;27.904;2023-04-01T14:42:45;15.16;78.11
67799;SHT30;54596;43.216;27.904;2023-04-01T14:47:56;15.18;77.89
67799;SHT30;54596;43.216;27.904;2023-04-01T14:50:25;15.19;78.04
67799;SHT30;54596;43.216;27.904;2023-04-01T14:53:33;15.21;77.76
67799;SHT30;54596;43.216;27.904;2023-04-01T14:56:02;15.12;77.80
67799;SHT30;54596;43.216;27.904;2023-04-01T15:06:56;14.95;78.24
67799;SHT30;54596;43.216;27.904;2023-04-01T15:12:22;14.81;78.63
67799;SHT30;54596;43.216;27.904;2023-04-01T15:15:19;14.84;78.67
67799;SHT30;54596;43.216;27.904;2023-04-01T15:18:03;14.87;78.59
67799;SHT30;54596;43.216;27.904;2023-04-01T15:29:00;14.90;78.20
67799;SHT30;54596;43.216;27.904;2023-04-01T15:31:49;14.87;78.32
67799;SHT30;54596;43.216;27.904;2023-04-01T15:42:33;14.64;78.74
67799;SHT30;54596;43.216;27.904;2023-04-01T15:48:20;14.39;79.55
67799;SHT30;54596;43.216;27.904;2023-04-01T16:13:12;13.85;81.66
67799;SHT30;54596;43.216;27.904;2023-04-01T16:21:11;13.94;81.42
67799;SHT30;54596;43.216;27.904;2023-04-01T16:23:43;13.98;81.26
67799;SHT30;54596;43.216;27.904;2023-04-01T16:28:57;13.91;81.36
67799;SHT30;54596;43.216;27.904;2023-04-01T16:31:48;13.90;81.36
67799;SHT30;54596;43.216;27.904;2023-04-01T16:34:21;13.81;81.70
67799;SHT30;54596;43.216;27.904;2023-04-01T16:37:00;13.87;81.65
67799;SHT30;54596;43.216;27.904;2023-04-01T16:42:40;13.87;81.68
67799;SHT30;54596;43.216;27.904;2023-04-01T16:48:06;13.87;81.67
67799;SHT30;54596;43.216;27.904;2023-04-01T16:50:48;13.90;81.56
67799;SHT30;54596;43.216;27.904;2023-04-01T16:53:21;13.83;81.96
67799;SHT30;54596;43.216;27.904;2023-04-01T16:55:55;13.77;82.15
67799;SHT30;54596;43.216;27.904;2023-04-01T17:01:30;13.76;82.24
67799;SHT30;54596;43.216;27.904;2023-04-01T17:15:21;13.78;82.34
67799;SHT30;54596;43.216;27.904;2023-04-01T17:18:07;13.77;82.37
67799;SHT30;54596;43.216;27.904;2023-04-01T17:21:05;13.84;82.15
67799;SHT30;54596;43.216;27.904;2023-04-01T17:26:38;13.85;82.09
67799;SHT30;54596;43.216;27.904;2023-04-01T17:34:37;13.85;82.09
67799;SHT30;54596;43.216;27.904;2023-04-01T17:42:40;13.81;82.23
67799;SHT30;54596;43.216;27.904;2023-04-01T17:45:19;13.76;82.53
67799;SHT30;54596;43.216;27.904;2023-04-01T17:48:08;13.73;82.66
67799;SHT30;54596;43.216;27.904;2023-04-01T17:59:03;13.73;83.53
67799;SHT30;54596;43.216;27.904;2023-04-01T18:04:55;13.65;84.46
67799;SHT30;54596;43.216;27.904;2023-04-01T18:10:35;13.48;84.88
67799;SHT30;54596;43.216;27.904;2023-04-01T18:13:33;13.39;85.08
67799;SHT30;54596;43.216;27.904;2023-04-01T18:22:03;13.28;85.56
67799;SHT30;54596;43.216;27.904;2023-04-01T18:24:41;13.23;85.62
67799;SHT30;54596;43.216;27.904;2023-04-01T18:27:38;13.22;85.81
67799;SHT30;54596;43.216;27.904;2023-04-01T18:30:15;13.21;85.87
67799;SHT30;54596;43.216;27.904;2023-04-01T18:38:13;13.34;86.06
67799;SHT30;54596;43.216;27.904;2023-04-01T18:40:48;13.38;86.46
67799;SHT30;54596;43.216;27.904;2023-04-01T18:43:46;13.40;86.51
67799;SHT30;54596;43.216;27.904;2023-04-01T18:49:48;13.52;86.59
67799;SHT30;54596;43.216;27.904;2023-04-01T18:52:22;13.57;86.79
67799;SHT30;54596;43.216;27.904;2023-04-01T18:57:18;13.53;85.89
67799;SHT30;54596;43.216;27.904;2023-04-01T18:59:49;13.48;86.14
67799;SHT30;54596;43.216;27.904;2023-04-01T19:02:31;13.45;85.95
67799;SHT30;54596;43.216;27.904;2023-04-01T19:05:07;13.40;85.79
67799;SHT30;54596;43.216;27.904;2023-04-01T19:10:27;13.34;85.80
67799;SHT30;54596;43.216;27.904;2023-04-01T19:15:31;13.19;86.29
67799;SHT30;54596;43.216;27.904;2023-04-01T19:18:36;13.18;86.50
67799;SHT30;54596;43.216;27.904;2023-04-01T19:21:09;13.16;86.36
67799;SHT30;54596;43.216;27.904;2023-04-01T19:26:10;13.18;86.38
67799;SHT30;54596;43.216;27.904;2023-04-01T19:28:59;13.18;86.48
67799;SHT30;54596;43.216;27.904;2023-04-01T19:37:45;13.26;86.94
67799;SHT30;54596;43.216;27.904;2023-04-01T19:42:47;13.25;87.23
67799;SHT30;54596;43.216;27.904;2023-04-01T19:48:04;13.21;87.60
67799;SHT30;54596;43.216;27.904;2023-04-01T19:50:51;13.19;87.60
67799;SHT30;54596;43.216;27.904;2023-04-01T19:56:22;13.15;87.24
67799;SHT30;54596;43.216;27.904;2023-04-01T19:59:22;13.10;87.17
67799;SHT30;54596;43.216;27.904;2023-04-01T20:04:51;13.03;86.14
67799;SHT30;54596;43.216;27.904;2023-04-01T20:07:24;13.04;86.09
67799;SHT30;54596;43.216;27.904;2023-04-01T20:09:59;12.98;86.02
67799;SHT30;54596;43.216;27.904;2023-04-01T20:12:58;12.98;85.54
67799;SHT30;54596;43.216;27.904;2023-04-01T20:15:45;12.95;85.49
67799;SHT30;54596;43.216;27.904;2023-04-01T20:20:56;12.97;85.35
67799;SHT30;54596;43.216;27.904;2023-04-01T20:23:41;12.97;85.33
67799;SHT30;54596;43.216;27.904;2023-04-01T20:26:10;12.98;85.42
67799;SHT30;54596;43.216;27.904;2023-04-01T20:28:58;13.04;85.24
67799;SHT30;54596;43.216;27.904;2023-04-01T20:52:41;12.70;86.87
67799;SHT30;54596;43.216;27.904;2023-04-01T20:55:21;12.69;86.85
67799;SHT30;54596;43.216;27.904;2023-04-01T21:03:12;12.62;85.59
67799;SHT30;54596;43.216;27.904;2023-04-01T21:11:34;12.67;83.88
67799;SHT30;54596;43.216;27.904;2023-04-01T21:20:12;12.83;83.77
67799;SHT30;54596;43.216;27.904;2023-04-01T21:22:27;12.75;84.52
67799;SHT30;54596;43.216;27.904;2023-04-01T21:27:35;12.72;86.51
67799;SHT30;54596;43.216;27.904;2023-04-01T21:30:15;12.64;87.00
67799;SHT30;54596;43.216;27.904;2023-04-01T21:44:31;12.41;88.48
67799;SHT30;54596;43.216;27.904;2023-04-01T21:50:47;12.35;88.65
67799;SHT30;54596;43.216;27.904;2023-04-01T21:59:40;12.36;88.65
67799;SHT30;54596;43.216;27.904;2023-04-01T22:10:50;12.32;88.73
67799;SHT30;54596;43.216;27.904;2023-04-01T22:13:53;12.35;88.59
67799;SHT30;54596;43.216;27.904;2023-04-01T22:16:40;12.28;88.78
67799;SHT30;54596;43.216;27.904;2023-04-01T22:22:01;12.21;88.97
67799;SHT30;54596;43.216;27.904;2023-04-01T22:30:51;12.08;89.55
67799;SHT30;54596;43.216;27.904;2023-04-01T22:34:35;12.10;89.49
67799;SHT30;54596;43.216;27.904;2023-04-01T22:43:55;12.11;88.95
67799;SHT30;54596;43.216;27.904;2023-04-01T22:49:23;12.07;89.09
67799;SHT30;54596;43.216;27.904;2023-04-01T22:54:29;12.08;89.13
67799;SHT30;54596;43.216;27.904;2023-04-01T23:00:06;12.14;88.95
67799;SHT30;54596;43.216;27.904;2023-04-01T23:03:00;12.18;88.90
67799;SHT30;54596;43.216;27.904;2023-04-01T23:05:28;12.22;88.76
67799;SHT30;54596;43.216;27.904;2023-04-01T23:08:27;12.20;88.50
67799;SHT30;54596;43.216;27.904;2023-04-01T23:11:02;12.21;88.14
67799;SHT30;54596;43.216;27.904;2023-04-01T23:13:34;12.18;87.78
67799;SHT30;54596;43.216;27.904;2023-04-01T23:16:05;12.25;86.80
67799;SHT30;54596;43.216;27.904;2023-04-01T23:29:15;12.24;84.36
67799;SHT30;54596;43.216;27.904;2023-04-01T23:31:42;12.18;83.32
67799;SHT30;54596;43.216;27.904;2023-04-01T23:37:18;12.02;82.49
67799;SHT30;54596;43.216;27.904;2023-04-01T23:40:10;12.00;81.55
67799;SHT30;54596;43.216;27.904;2023-04-01T23:42:40;12.02;80.05
67799;SHT30;54596;43.216;27.904;2023-04-01T23:45:13;11.98;79.40
67799;SHT30;54596;43.216;27.904;2023-04-01T23:47:43;11.98;79.25
67799;SHT30;54596;43.216;27.904;2023-04-01T23:50:18;11.94;79.08
67799;SHT30;54596;43.216;27.904;2023-04-01T23:52:54;11.90;78.82
67799;SHT30;54596;43.216;27.904;2023-04-01T23:55:26;11.89;78.40
